createdAt,value
2023-03-30T00:02:23.200Z,4.22
2023-03-30T00:04:52.131Z,3.75
2023-03-30T00:07:22.021Z,4.50
2023-03-30T00:09:50.391Z,5.35
2023-03-30T00:12:20.778Z,2.33
2023-03-30T00:14:49.324Z,4.10
2023-03-30T00:17:17.942Z,4.07
2023-03-30T00:19:46.305Z,3.05
2023-03-30T00:22:14.659Z,3.53
2023-03-30T00:24:44.722Z,6.75
2023-03-30T00:27:12.989Z,4.47
2023-03-30T00:29:41.369Z,4.95
2023-03-30T00:32:09.818Z,5.35
2023-03-30T00:34:38.151Z,4.13
2023-03-30T00:37:06.490Z,3.28
2023-03-30T00:39:35.148Z,6.57
2023-03-30T00:42:05.009Z,4.32
2023-03-30T00:45:07.908Z,4.40
2023-03-30T00:47:39.746Z,5.60
2023-03-30T00:50:10.109Z,5.82
2023-03-30T00:52:39.789Z,5.90
2023-03-30T00:55:11.037Z,6.55
2023-03-30T00:57:44.443Z,4.18
2023-03-30T01:00:14.793Z,3.72
2023-03-30T01:02:48.841Z,3.70
2023-03-30T01:05:18.104Z,4.68
2023-03-30T01:07:50.055Z,2.55
2023-03-30T01:10:18.939Z,3.78
2023-03-30T01:12:49.640Z,2.95
2023-03-30T01:15:18.304Z,5.15
2023-03-30T01:18:03.224Z,4.38
2023-03-30T01:21:01.007Z,5.30
2023-03-30T01:24:06.327Z,4.22
2023-03-30T01:26:46.528Z,5.03
2023-03-30T01:29:27.878Z,5.75
2023-03-30T01:32:33.889Z,5.20
2023-03-30T01:35:40.164Z,4.70
2023-03-30T01:39:02.195Z,4.55
2023-03-30T01:41:38.384Z,6.38
2023-03-30T01:44:13.565Z,4.43
2023-03-30T01:46:48.003Z,6.30
2023-03-30T01:49:24.098Z,4.57
2023-03-30T01:51:57.604Z,5.78
2023-03-30T01:54:31.752Z,4.85
2023-03-30T01:57:06.438Z,2.42
2023-03-30T01:59:39.628Z,5.20
2023-03-30T02:02:10.598Z,5.28
2023-03-30T02:04:42.077Z,4.65
2023-03-30T02:07:16.457Z,3.10
2023-03-30T02:09:46.801Z,5.55
2023-03-30T02:12:17.002Z,5.65
2023-03-30T02:14:45.701Z,6.35
2023-03-30T02:17:18.590Z,7.10
2023-03-30T02:19:47.706Z,5.18
2023-03-30T02:22:17.298Z,3.97
2023-03-30T02:24:47.438Z,3.03
2023-03-30T02:27:18.620Z,4.05
2023-03-30T02:29:47.482Z,5.47
2023-03-30T02:32:19.353Z,3.75
2023-03-30T02:35:05.115Z,4.45
2023-03-30T02:37:46.717Z,4.38
2023-03-30T02:40:26.749Z,7.40
2023-03-30T02:43:19.274Z,7.35
2023-03-30T02:45:54.757Z,7.47
2023-03-30T02:48:39.751Z,3.72
2023-03-30T02:51:25.649Z,9.57
2023-03-30T02:54:02.551Z,3.97
2023-03-30T02:56:38.913Z,8.30
2023-03-30T02:59:14.309Z,4.40
2023-03-30T03:01:48.058Z,6.38
2023-03-30T03:04:17.025Z,4.63
2023-03-30T03:06:45.567Z,5.93
2023-03-30T03:09:15.426Z,4.38
2023-03-30T03:11:43.722Z,4.50
2023-03-30T03:14:13.416Z,4.68
2023-03-30T03:16:42.331Z,4.82
2023-03-30T03:19:11.081Z,7.13
2023-03-30T03:21:39.449Z,6.45
2023-03-30T03:24:08.315Z,6.18
2023-03-30T03:26:38.106Z,10.18
2023-03-30T03:29:06.492Z,6.70
2023-03-30T03:31:37.134Z,5.50
2023-03-30T03:34:05.785Z,4.43
2023-03-30T03:36:34.566Z,4.32
2023-03-30T03:39:02.920Z,6.13
2023-03-30T03:41:31.231Z,5.13
2023-03-30T03:43:59.599Z,4.07
2023-03-30T03:46:28.119Z,5.80
2023-03-30T03:48:57.867Z,6.60
2023-03-30T03:51:26.244Z,6.68
2023-03-30T03:53:54.497Z,4.82
2023-03-30T03:56:22.818Z,4.93
2023-03-30T03:58:51.252Z,7.18
2023-03-30T04:01:19.684Z,4.45
2023-03-30T04:03:48.258Z,5.35
2023-03-30T04:06:18.294Z,7.53
2023-03-30T04:08:46.629Z,4.93
2023-03-30T04:11:15.055Z,7.35
2023-03-30T04:13:43.367Z,7.68
2023-03-30T04:16:11.699Z,5.18
2023-03-30T04:18:41.898Z,3.88
2023-03-30T04:21:13.526Z,9.02
2023-03-30T04:23:46.016Z,8.73
2023-03-30T04:26:16.042Z,7.97
2023-03-30T04:28:44.417Z,6.80
2023-03-30T04:31:13.178Z,6.78
2023-03-30T04:33:51.931Z,5.28
2023-03-30T04:36:21.579Z,8.63
2023-03-30T04:38:58.997Z,6.13
2023-03-30T04:41:33.770Z,8.98
2023-03-30T04:44:06.483Z,4.90
2023-03-30T04:46:34.952Z,6.72
2023-03-30T04:49:03.408Z,6.65
2023-03-30T04:51:31.751Z,8.68
2023-03-30T04:54:02.487Z,7.55
2023-03-30T04:56:30.822Z,10.27
2023-03-30T04:58:59.159Z,6.07
2023-03-30T05:01:27.679Z,7.13
2023-03-30T05:03:56.077Z,4.18
2023-03-30T05:06:24.511Z,4.95
2023-03-30T05:08:53.070Z,5.72
2023-03-30T05:11:22.744Z,6.47
2023-03-30T05:13:52.692Z,10.68
2023-03-30T05:16:22.081Z,7.00
2023-03-30T05:18:51.831Z,6.47
2023-03-30T05:21:20.723Z,5.10
2023-03-30T05:23:49.425Z,7.85
2023-03-30T05:26:17.766Z,4.97
2023-03-30T05:28:48.039Z,7.03
2023-03-30T05:31:17.393Z,9.05
2023-03-30T05:33:45.963Z,8.32
2023-03-30T05:36:14.647Z,8.20
2023-03-30T05:38:42.973Z,5.65
2023-03-30T05:41:11.599Z,8.60
2023-03-30T05:43:39.932Z,7.65
2023-03-30T05:46:10.233Z,7.72
2023-03-30T05:48:38.671Z,10.20
2023-03-30T05:51:07.607Z,9.95
2023-03-30T05:53:36.676Z,8.80
2023-03-30T05:56:05.263Z,7.95
2023-03-30T05:58:33.564Z,6.40
2023-03-30T06:01:02.111Z,5.90
2023-03-30T06:03:32.177Z,8.38
2023-03-30T06:06:00.616Z,9.02
2023-03-30T06:08:29.945Z,5.95
2023-03-30T06:10:58.916Z,8.05
2023-03-30T06:13:27.972Z,8.35
2023-03-30T06:15:57.251Z,5.80
2023-03-30T06:18:25.942Z,12.43
2023-03-30T06:20:55.751Z,6.28
2023-03-30T06:23:24.275Z,5.85
2023-03-30T06:25:54.697Z,6.43
2023-03-30T06:28:23.870Z,6.97
2023-03-30T06:30:52.366Z,7.10
2023-03-30T06:33:20.965Z,8.13
2023-03-30T06:35:50.565Z,6.95
2023-03-30T06:38:21.866Z,6.80
2023-03-30T06:40:51.384Z,6.60
2023-03-30T06:43:22.332Z,8.20
2023-03-30T06:45:54.948Z,5.68
2023-03-30T06:48:25.166Z,6.53
2023-03-30T06:50:54.417Z,6.25
2023-03-30T06:53:25.867Z,9.82
2023-03-30T06:55:57.722Z,7.57
2023-03-30T06:58:27.632Z,7.03
2023-03-30T07:00:56.928Z,9.13
2023-03-30T07:03:26.728Z,9.93
2023-03-30T07:05:55.817Z,11.82
2023-03-30T07:08:25.567Z,14.93
2023-03-30T07:10:53.975Z,6.55
2023-03-30T07:13:22.553Z,11.40
2023-03-30T07:15:52.581Z,9.25
2023-03-30T07:18:21.201Z,8.30
2023-03-30T07:20:49.835Z,9.45
2023-03-30T07:23:18.800Z,7.78
2023-03-30T07:25:48.815Z,8.32
2023-03-30T07:28:17.212Z,10.40
2023-03-30T07:30:45.836Z,7.70
2023-03-30T07:33:14.956Z,9.65
2023-03-30T07:35:47.021Z,11.38
2023-03-30T07:38:15.669Z,6.38
2023-03-30T07:40:44.079Z,7.88
2023-03-30T07:43:13.833Z,8.25
2023-03-30T07:45:42.172Z,7.53
2023-03-30T07:48:10.722Z,8.15
2023-03-30T07:50:39.156Z,7.00
2023-03-30T07:53:07.867Z,10.52
2023-03-30T07:55:36.119Z,8.30
2023-03-30T07:58:04.597Z,6.80
2023-03-30T08:00:34.330Z,6.88
2023-03-30T08:03:03.348Z,5.53
2023-03-30T08:05:31.716Z,8.63
2023-03-30T08:07:59.990Z,8.77
2023-03-30T08:10:28.405Z,6.63
2023-03-30T08:12:56.827Z,8.10
2023-03-30T08:15:25.174Z,7.22
2023-03-30T08:17:55.034Z,4.07
2023-03-30T08:20:23.500Z,4.38
2023-03-30T08:22:51.789Z,4.15
2023-03-30T08:25:20.149Z,4.32
2023-03-30T08:27:48.454Z,2.78
2023-03-30T08:30:17.518Z,5.05
2023-03-30T08:32:45.983Z,3.25
2023-03-30T08:35:17.192Z,9.40
2023-03-30T08:37:45.510Z,6.28
2023-03-30T08:40:15.889Z,3.65
2023-03-30T08:43:01.773Z,4.88
2023-03-30T08:45:38.133Z,3.88
2023-03-30T08:48:12.626Z,4.13
2023-03-30T08:50:48.279Z,3.80
2023-03-30T08:53:16.816Z,4.50
2023-03-30T08:55:48.728Z,6.85
2023-03-30T08:58:25.751Z,6.35
2023-03-30T09:01:02.418Z,5.68
2023-03-30T09:03:38.785Z,6.72
2023-03-30T09:06:14.547Z,8.55
2023-03-30T09:08:43.384Z,5.97
2023-03-30T09:11:15.207Z,6.20
2023-03-30T09:13:46.506Z,6.97
2023-03-30T09:16:20.619Z,7.55
2023-03-30T09:18:55.141Z,5.20
2023-03-30T09:21:29.913Z,9.55
2023-03-30T09:24:00.048Z,5.75
2023-03-30T09:26:36.088Z,7.65
2023-03-30T09:29:13.500Z,7.30
2023-03-30T09:31:46.370Z,7.95
2023-03-30T09:34:26.433Z,6.35
2023-03-30T09:36:58.872Z,7.20
2023-03-30T09:39:29.983Z,4.80
2023-03-30T09:42:12.933Z,5.15
2023-03-30T09:44:47.840Z,8.88
2023-03-30T09:47:25.791Z,7.85
2023-03-30T09:49:59.324Z,3.95
2023-03-30T09:52:32.225Z,6.50
2023-03-30T09:55:18.246Z,3.60
2023-03-30T09:57:46.580Z,6.90
2023-03-30T10:00:27.630Z,4.05
2023-03-30T10:03:00.576Z,6.70
2023-03-30T10:05:29.261Z,6.03
2023-03-30T10:08:01.401Z,7.40
2023-03-30T10:10:34.234Z,5.80
2023-03-30T10:13:09.518Z,5.50
2023-03-30T10:15:40.485Z,4.47
2023-03-30T10:18:25.361Z,5.13
2023-03-30T10:21:06.003Z,9.55
2023-03-30T10:23:40.221Z,6.53
2023-03-30T10:26:15.663Z,5.32
2023-03-30T10:28:54.243Z,5.00
2023-03-30T10:31:26.330Z,6.95
2023-03-30T10:33:59.135Z,5.88
2023-03-30T10:36:32.517Z,5.18
2023-03-30T10:39:13.822Z,5.43
2023-03-30T10:41:43.610Z,4.25
2023-03-30T10:44:21.652Z,5.43
2023-03-30T10:46:54.025Z,6.30
2023-03-30T10:49:36.071Z,4.88
2023-03-30T10:52:13.851Z,4.35
2023-03-30T10:54:51.842Z,4.07
2023-03-30T10:57:22.877Z,3.58
2023-03-30T11:00:15.761Z,6.25
2023-03-30T11:02:55.603Z,3.28
2023-03-30T11:05:32.741Z,6.45
2023-03-30T11:08:04.223Z,5.03
2023-03-30T11:10:38.210Z,4.30
2023-03-30T11:13:08.770Z,5.15
2023-03-30T11:15:43.749Z,6.07
2023-03-30T11:18:18.630Z,4.90
2023-03-30T11:20:52.764Z,7.00
2023-03-30T11:23:29.018Z,4.72
2023-03-30T11:26:04.245Z,5.03
2023-03-30T11:28:53.026Z,7.70
2023-03-30T11:31:33.925Z,5.82
2023-03-30T11:34:10.255Z,6.20
2023-03-30T11:36:46.336Z,6.63
2023-03-30T11:39:30.989Z,6.43
2023-03-30T11:42:09.743Z,5.60
2023-03-30T11:44:38.143Z,6.93
2023-03-30T11:47:24.442Z,3.80
2023-03-30T11:50:04.378Z,2.97
2023-03-30T11:52:39.858Z,6.05
2023-03-30T11:55:28.558Z,5.68
2023-03-30T11:58:08.282Z,5.95
2023-03-30T12:00:49.945Z,7.40
2023-03-30T12:03:31.539Z,7.72
2023-03-30T12:06:08.017Z,4.85
2023-03-30T12:08:56.567Z,4.82
2023-03-30T12:11:34.665Z,7.25
2023-03-30T12:14:04.792Z,5.60
2023-03-30T12:16:44.864Z,5.30
2023-03-30T12:19:18.891Z,6.47
2023-03-30T12:21:55.297Z,5.10
2023-03-30T12:24:31.041Z,6.47
2023-03-30T12:27:06.066Z,4.85
2023-03-30T12:32:28.367Z,5.05
2023-03-30T12:34:58.376Z,8.23
2023-03-30T12:37:30.057Z,6.03
2023-03-30T12:40:06.976Z,3.67
2023-03-30T12:42:39.806Z,4.38
2023-03-30T12:45:31.887Z,4.53
2023-03-30T12:48:32.571Z,5.97
2023-03-30T12:51:12.701Z,4.85
2023-03-30T12:54:15.979Z,5.35
2023-03-30T12:56:52.510Z,5.35
2023-03-30T13:00:15.749Z,5.85
2023-03-30T13:03:15.443Z,4.05
2023-03-30T13:05:45.390Z,6.32
2023-03-30T13:08:23.118Z,2.78
2023-03-30T13:10:51.407Z,5.75
2023-03-30T13:13:25.132Z,3.97
2023-03-30T13:18:55.526Z,4.95
2023-03-30T13:21:26.291Z,5.97
2023-03-30T13:24:04.385Z,3.80
2023-03-30T13:26:43.768Z,5.25
2023-03-30T13:29:15.427Z,4.20
2023-03-30T13:32:05.213Z,7.72
2023-03-30T13:34:55.129Z,4.13
2023-03-30T13:37:48.758Z,5.78
2023-03-30T13:40:35.095Z,4.93
2023-03-30T13:43:14.354Z,4.85
2023-03-30T13:45:51.406Z,0.90
2023-03-30T13:48:39.297Z,1.52
2023-03-30T13:51:16.322Z,1.15
2023-03-30T13:53:51.796Z,1.55
2023-03-30T13:56:21.335Z,0.73
2023-03-30T13:58:56.650Z,1.13
2023-03-30T14:01:26.778Z,0.90
2023-03-30T14:03:56.922Z,1.00
2023-03-30T14:06:28.213Z,1.85
2023-03-30T14:09:10.391Z,0.88
2023-03-30T14:11:41.402Z,3.17
2023-03-30T14:14:16.296Z,1.05
2023-03-30T14:16:44.798Z,0.60
2023-03-30T14:19:21.919Z,0.90
2023-03-30T14:21:55.161Z,1.27
2023-03-30T14:24:29.762Z,1.13
2023-03-30T14:27:04.601Z,1.38
2023-03-30T14:29:33.080Z,2.03
2023-03-30T14:32:09.254Z,1.65
2023-03-30T14:34:38.325Z,0.25
2023-03-30T14:37:09.543Z,1.67
2023-03-30T14:39:42.648Z,1.33
2023-03-30T14:42:16.417Z,2.25
2023-03-30T14:44:46.916Z,0.90
2023-03-30T14:47:16.247Z,1.58
2023-03-30T14:49:47.636Z,0.30
2023-03-30T14:52:20.808Z,1.13
2023-03-30T14:55:05.271Z,1.27
2023-03-30T14:57:39.094Z,1.75
2023-03-30T15:00:18.699Z,3.00
2023-03-30T15:02:50.167Z,1.10
2023-03-30T15:05:19.490Z,1.63
2023-03-30T15:07:51.252Z,1.38
2023-03-30T15:10:25.097Z,0.85
2023-03-30T15:12:56.686Z,2.13
2023-03-30T15:15:28.318Z,2.20
2023-03-30T15:17:57.767Z,0.93
2023-03-30T15:20:28.496Z,3.08
2023-03-30T15:22:58.513Z,1.23
2023-03-30T15:25:32.782Z,1.88
2023-03-30T15:28:06.778Z,2.67
2023-03-30T15:30:39.384Z,1.10
2023-03-30T15:33:08.304Z,4.10
2023-03-30T15:35:38.640Z,1.67
2023-03-30T15:38:17.355Z,1.73
2023-03-30T15:40:47.992Z,1.05
2023-03-30T15:43:19.492Z,0.95
2023-03-30T15:45:51.704Z,1.63
2023-03-30T15:48:23.148Z,1.75
2023-03-30T15:50:56.864Z,3.40
2023-03-30T15:56:09.187Z,3.83
2023-03-30T15:58:37.871Z,1.02
2023-03-30T16:01:06.996Z,2.40
2023-03-30T16:03:40.611Z,1.60
2023-03-30T16:06:14.511Z,1.33
2023-03-30T16:11:16.439Z,1.25
2023-03-30T16:13:46.393Z,1.40
2023-03-30T16:16:15.833Z,2.40
2023-03-30T16:18:44.464Z,1.92
2023-03-30T16:21:13.054Z,1.60
2023-03-30T16:23:41.600Z,2.72
2023-03-30T16:26:12.537Z,1.67
2023-03-30T16:28:42.807Z,1.52
2023-03-30T16:31:17.544Z,2.17
2023-03-30T16:33:45.926Z,0.93
2023-03-30T16:36:16.197Z,1.85
2023-03-30T16:38:44.645Z,3.25
2023-03-30T16:41:19.492Z,3.92
2023-03-30T16:43:47.971Z,10.15
2023-03-30T16:46:18.039Z,3.80
2023-03-30T16:48:47.274Z,1.70
2023-03-30T16:51:17.217Z,2.50
2023-03-30T16:53:45.560Z,3.00
2023-03-30T16:56:18.757Z,3.38
2023-03-30T16:58:47.671Z,2.05
2023-03-30T17:01:18.856Z,3.25
2023-03-30T17:03:47.523Z,3.35
2023-03-30T17:06:17.215Z,1.52
2023-03-30T17:08:46.066Z,2.90
2023-03-30T17:11:15.513Z,2.00
2023-03-30T17:13:47.067Z,3.17
2023-03-30T17:16:16.976Z,1.77
2023-03-30T17:18:45.633Z,4.60
2023-03-30T17:21:16.742Z,2.03
2023-03-30T17:23:47.920Z,3.22
2023-03-30T17:26:17.336Z,1.92
2023-03-30T17:28:47.293Z,4.10
2023-03-30T17:31:18.473Z,3.65
2023-03-30T17:33:46.902Z,4.30
2023-03-30T17:36:18.467Z,2.58
2023-03-30T17:38:47.276Z,3.90
2023-03-30T17:41:17.160Z,2.78
2023-03-30T17:43:48.195Z,2.88
2023-03-30T17:46:18.317Z,2.72
2023-03-30T17:48:47.139Z,2.03
2023-03-30T17:51:15.692Z,3.88
2023-03-30T17:53:44.095Z,2.55
2023-03-30T17:56:14.498Z,2.67
2023-03-30T17:58:43.113Z,3.60
2023-03-30T18:01:14.089Z,3.38
2023-03-30T18:03:42.885Z,5.82
2023-03-30T18:06:13.672Z,4.97
2023-03-30T18:08:43.200Z,5.25
2023-03-30T18:11:12.188Z,3.30
2023-03-30T18:13:40.787Z,2.72
2023-03-30T18:16:14.150Z,2.30
2023-03-30T18:18:42.723Z,3.80
2023-03-30T18:21:12.101Z,3.67
2023-03-30T18:23:40.465Z,2.97
2023-03-30T18:26:12.232Z,4.45
2023-03-30T18:28:44.325Z,3.35
2023-03-30T18:31:14.528Z,2.22
2023-03-30T18:33:42.850Z,4.28
2023-03-30T18:36:13.467Z,4.05
2023-03-30T18:38:42.763Z,5.68
2023-03-30T18:41:12.938Z,1.80
2023-03-30T18:43:41.403Z,4.10
2023-03-30T18:46:13.074Z,4.03
2023-03-30T18:48:43.292Z,2.10
2023-03-30T18:51:12.733Z,4.35
2023-03-30T18:53:41.118Z,2.95
2023-03-30T18:56:13.833Z,6.03
2023-03-30T18:58:42.986Z,4.47
2023-03-30T19:01:13.569Z,4.47
2023-03-30T19:03:44.963Z,2.97
2023-03-30T19:06:16.625Z,3.47
2023-03-30T19:08:45.197Z,2.90
2023-03-30T19:11:17.348Z,3.33
2023-03-30T19:13:47.492Z,4.32
2023-03-30T19:16:18.716Z,2.97
2023-03-30T19:18:49.808Z,4.07
2023-03-30T19:21:19.496Z,2.75
2023-03-30T19:23:48.182Z,4.63
2023-03-30T19:26:16.641Z,5.43
2023-03-30T19:28:44.938Z,3.70
2023-03-30T19:31:16.518Z,1.85
2023-03-30T19:33:46.807Z,4.18
2023-03-30T19:36:17.991Z,4.25
2023-03-30T19:38:46.720Z,3.25
2023-03-30T19:41:15.157Z,3.42
2023-03-30T19:43:43.729Z,3.83
2023-03-30T19:46:13.209Z,2.88
2023-03-30T19:48:42.620Z,4.05
2023-03-30T19:51:12.690Z,3.85
2023-03-30T19:53:43.507Z,4.45
2023-03-30T19:56:13.293Z,4.60
2023-03-30T19:58:43.134Z,6.18
2023-03-30T20:01:11.908Z,4.20
2023-03-30T20:03:41.032Z,4.72
2023-03-30T20:06:12.327Z,3.47
2023-03-30T20:08:43.760Z,2.92
2023-03-30T20:11:14.374Z,3.95
2023-03-30T20:13:46.397Z,6.65
2023-03-30T20:16:21.412Z,3.90
2023-03-30T20:18:51.531Z,5.55
2023-03-30T20:21:22.292Z,4.47
2023-03-30T20:23:53.463Z,3.90
2023-03-30T20:26:23.698Z,4.50
2023-03-30T20:28:53.457Z,5.80
2023-03-30T20:31:23.312Z,6.45
2023-03-30T20:33:54.173Z,6.60
2023-03-30T20:36:25.944Z,3.97
2023-03-30T20:39:01.508Z,4.13
2023-03-30T20:41:39.977Z,4.80
2023-03-30T20:44:13.199Z,3.97
2023-03-30T20:46:44.078Z,4.28
2023-03-30T20:49:14.487Z,3.60
2023-03-30T20:51:45.546Z,4.22
2023-03-30T20:54:16.644Z,5.55
2023-03-30T20:56:46.705Z,6.55
2023-03-30T20:59:16.432Z,6.85
2023-03-30T21:01:47.666Z,3.67
2023-03-30T21:04:17.633Z,4.40
2023-03-30T21:06:47.906Z,7.15
2023-03-30T21:09:21.030Z,4.13
2023-03-30T21:11:51.243Z,8.25
2023-03-30T21:14:20.105Z,4.15
2023-03-30T21:16:48.582Z,5.22
2023-03-30T21:19:17.188Z,4.88
2023-03-30T21:21:48.273Z,5.63
2023-03-30T21:24:18.733Z,6.47
2023-03-30T21:26:47.044Z,4.32
2023-03-30T21:29:15.594Z,6.40
2023-03-30T21:31:44.053Z,4.50
2023-03-30T21:34:13.664Z,5.43
2023-03-30T21:36:42.743Z,5.95
2023-03-30T21:39:11.133Z,6.68
2023-03-30T21:41:40.955Z,6.55
2023-03-30T21:44:09.294Z,5.70
2023-03-30T21:46:37.700Z,4.53
2023-03-30T21:49:06.123Z,3.83
2023-03-30T21:51:34.505Z,3.72
2023-03-30T21:54:03.066Z,3.58
2023-03-30T21:56:32.496Z,6.57
2023-03-30T21:59:02.530Z,5.40
2023-03-30T22:01:30.912Z,4.63
2023-03-30T22:03:59.583Z,5.15
2023-03-30T22:06:28.197Z,6.10
2023-03-30T22:08:56.527Z,4.13
2023-03-30T22:11:26.699Z,8.27
2023-03-30T22:13:55.472Z,6.55
2023-03-30T22:16:28.460Z,5.50
2023-03-30T22:18:57.472Z,7.85
2023-03-30T22:21:29.322Z,7.97
2023-03-30T22:23:57.697Z,2.95
2023-03-30T22:26:27.442Z,6.43
2023-03-30T22:28:55.960Z,6.57
2023-03-30T22:31:26.710Z,4.97
2023-03-30T22:33:55.850Z,3.10
2023-03-30T22:36:26.481Z,4.28
2023-03-30T22:38:56.871Z,8.63
2023-03-30T22:41:26.808Z,5.43
2023-03-30T22:43:56.821Z,3.00
2023-03-30T22:46:28.046Z,5.35
2023-03-30T22:48:56.681Z,6.05
2023-03-30T22:51:26.974Z,3.38
2023-03-30T22:53:58.098Z,5.57
2023-03-30T22:56:27.619Z,5.20
2023-03-30T22:58:56.151Z,6.88
2023-03-30T23:01:24.619Z,6.68
2023-03-30T23:03:54.644Z,6.13
2023-03-30T23:06:23.009Z,6.03
2023-03-30T23:08:52.802Z,6.43
2023-03-30T23:11:21.778Z,4.93
2023-03-30T23:13:50.182Z,7.10
2023-03-30T23:16:19.354Z,4.28
2023-03-30T23:18:47.658Z,5.28
2023-03-30T23:21:17.438Z,5.65
2023-03-30T23:23:45.778Z,5.80
2023-03-30T23:26:14.077Z,6.10
2023-03-30T23:28:43.681Z,6.55
2023-03-30T23:31:13.482Z,6.35
2023-03-30T23:33:42.270Z,7.88
2023-03-30T23:36:13.988Z,4.50
2023-03-30T23:38:43.935Z,6.55
2023-03-30T23:41:14.493Z,4.45
2023-03-30T23:43:43.200Z,5.80
2023-03-30T23:46:11.674Z,5.65
2023-03-30T23:48:40.534Z,2.83
2023-03-30T23:51:09.556Z,8.90
2023-03-30T23:53:40.520Z,4.78
2023-03-30T23:56:13.895Z,5.22
2023-03-30T23:58:42.569Z,6.47
